createdAt,value
2022-11-02T00:02:13.762Z,70.05
2022-11-02T00:04:40.231Z,69.89
2022-11-02T00:07:06.770Z,70.65
2022-11-02T00:09:33.201Z,71.10
2022-11-02T00:11:59.724Z,71.69
2022-11-02T00:14:26.169Z,72.35
2022-11-02T00:16:52.601Z,72.77
2022-11-02T00:19:19.118Z,73.03
2022-11-02T00:21:45.557Z,72.87
2022-11-02T00:24:12.087Z,72.43
2022-11-02T00:26:38.584Z,71.79
2022-11-02T00:29:05.183Z,71.86
2022-11-02T00:31:31.694Z,72.54
2022-11-02T00:33:58.559Z,72.52
2022-11-02T00:36:25.163Z,72.35
2022-11-02T00:38:51.633Z,72.17
2022-11-02T00:41:19.083Z,72.13
2022-11-02T00:43:45.764Z,71.87
2022-11-02T00:46:12.705Z,71.95
2022-11-02T00:48:39.191Z,71.63
2022-11-02T00:51:05.882Z,71.45
2022-11-02T00:53:32.360Z,70.92
2022-11-02T00:55:59.163Z,70.77
2022-11-02T00:58:25.880Z,71.01
2022-11-02T01:00:52.631Z,70.67
2022-11-02T01:03:19.102Z,70.91
2022-11-02T01:05:46.344Z,70.96
2022-11-02T01:08:12.799Z,71.30
2022-11-02T01:10:42.733Z,71.46
2022-11-02T01:13:12.165Z,71.53
2022-11-02T01:15:39.596Z,71.11
2022-11-02T01:18:06.480Z,71.18
2022-11-02T01:20:33.192Z,71.39
2022-11-02T01:22:59.673Z,71.42
2022-11-02T01:25:26.273Z,71.60
2022-11-02T01:27:52.771Z,71.84
2022-11-02T01:30:19.267Z,72.23
2022-11-02T01:32:45.768Z,71.81
2022-11-02T01:35:12.265Z,71.62
2022-11-02T01:37:38.744Z,71.61
2022-11-02T01:40:05.538Z,71.76
2022-11-02T01:42:32.145Z,71.65
2022-11-02T01:44:58.641Z,71.30
2022-11-02T01:47:26.483Z,71.43
2022-11-02T01:50:05.004Z,71.55
2022-11-02T01:52:33.148Z,72.06
2022-11-02T01:55:01.833Z,72.02
2022-11-02T01:57:29.000Z,72.50
2022-11-02T02:00:03.964Z,72.62
2022-11-02T02:02:43.308Z,72.23
2022-11-02T02:05:10.355Z,72.60
2022-11-02T02:07:37.971Z,72.60
2022-11-02T02:10:05.129Z,72.70
2022-11-02T02:12:33.545Z,73.26
2022-11-02T02:15:00.135Z,73.22
2022-11-02T02:17:28.950Z,72.57
2022-11-02T02:20:26.635Z,72.56
2022-11-02T02:22:53.337Z,72.80
2022-11-02T02:29:20.556Z,73.16
2022-11-02T02:32:06.693Z,73.08
2022-11-02T02:34:41.636Z,72.92
2022-11-02T02:37:10.194Z,72.74
2022-11-02T02:39:36.988Z,72.57
2022-11-02T02:42:06.636Z,71.35
2022-11-02T02:44:34.189Z,71.07
2022-11-02T02:47:02.391Z,71.00
2022-11-02T02:49:34.404Z,71.24
2022-11-02T02:52:01.472Z,71.37
2022-11-02T02:54:46.672Z,71.90
2022-11-02T02:57:13.882Z,71.58
2022-11-02T02:59:44.304Z,71.73
2022-11-02T03:02:16.481Z,71.66
2022-11-02T03:04:43.153Z,71.61
2022-11-02T03:07:09.949Z,71.41
2022-11-02T03:09:40.800Z,72.40
2022-11-02T03:12:18.124Z,72.13
2022-11-02T03:14:44.621Z,72.57
2022-11-02T03:17:15.295Z,72.47
2022-11-02T03:19:51.466Z,72.26
2022-11-02T03:22:23.203Z,72.88
2022-11-02T03:24:52.798Z,72.84
2022-11-02T03:27:25.174Z,72.86
2022-11-02T03:30:11.197Z,72.93
2022-11-02T03:32:39.863Z,72.66
2022-11-02T03:35:10.372Z,72.99
2022-11-02T03:37:41.281Z,73.36
2022-11-02T03:40:11.753Z,73.34
2022-11-02T03:42:39.946Z,73.37
2022-11-02T03:45:12.851Z,73.15
2022-11-02T03:47:39.688Z,72.91
2022-11-02T03:50:10.039Z,73.94
2022-11-02T03:52:38.116Z,74.48
2022-11-02T03:55:06.118Z,74.78
2022-11-02T03:57:35.258Z,73.79
2022-11-02T04:00:06.196Z,73.60
2022-11-02T04:02:41.379Z,73.81
2022-11-02T04:05:08.713Z,73.94
2022-11-02T04:07:58.463Z,73.70
2022-11-02T04:10:27.445Z,73.28
2022-11-02T04:13:12.776Z,73.84
2022-11-02T04:15:39.260Z,74.31
2022-11-02T04:18:24.445Z,74.32
2022-11-02T04:20:51.150Z,74.25
2022-11-02T04:23:36.619Z,74.59
2022-11-02T04:26:05.011Z,74.23
2022-11-02T04:28:38.723Z,74.48
2022-11-02T04:31:05.827Z,74.18
2022-11-02T04:33:37.335Z,73.77
2022-11-02T04:36:07.317Z,74.14
2022-11-02T04:38:40.763Z,73.53
2022-11-02T04:41:37.170Z,73.69
2022-11-02T04:44:07.259Z,73.98
2022-11-02T04:46:35.226Z,73.44
2022-11-02T04:51:49.851Z,73.81
2022-11-02T04:54:18.742Z,73.45
2022-11-02T04:56:47.849Z,73.74
2022-11-02T04:59:15.902Z,73.77
2022-11-02T05:01:42.867Z,73.38
2022-11-02T05:04:09.682Z,73.91
2022-11-02T05:06:36.908Z,74.19
2022-11-02T05:09:04.146Z,73.61
2022-11-02T05:11:32.546Z,73.70
2022-11-02T05:13:59.694Z,73.55
2022-11-02T05:16:29.999Z,73.31
2022-11-02T05:18:57.341Z,73.36
2022-11-02T05:21:27.821Z,73.16
2022-11-02T05:23:55.307Z,73.56
2022-11-02T05:26:22.504Z,73.46
2022-11-02T05:28:51.414Z,73.78
2022-11-02T05:31:17.949Z,73.54
2022-11-02T05:33:44.587Z,73.90
2022-11-02T05:36:16.345Z,73.85
2022-11-02T05:38:46.215Z,74.06
2022-11-02T05:41:21.812Z,74.21
2022-11-02T05:43:49.772Z,74.23
2022-11-02T05:46:21.157Z,74.51
2022-11-02T05:48:47.612Z,74.09
2022-11-02T05:51:14.436Z,73.67
2022-11-02T05:53:40.929Z,73.82
2022-11-02T05:56:07.705Z,74.09
2022-11-02T05:58:34.336Z,73.84
2022-11-02T06:01:01.361Z,74.07
2022-11-02T06:03:27.964Z,74.44
2022-11-02T06:05:58.323Z,74.17
2022-11-02T06:08:24.943Z,74.16
2022-11-02T06:10:51.491Z,74.47
2022-11-02T06:13:24.838Z,74.48
2022-11-02T06:15:51.915Z,74.67
2022-11-02T06:18:18.472Z,74.62
2022-11-02T06:20:47.888Z,74.86
2022-11-02T06:23:20.125Z,74.43
2022-11-02T06:25:50.465Z,73.90
2022-11-02T06:28:46.274Z,73.83
2022-11-02T06:31:17.359Z,73.38
2022-11-02T06:33:45.325Z,73.19
2022-11-02T06:36:11.945Z,73.69
2022-11-02T06:38:38.758Z,72.80
2022-11-02T06:41:06.833Z,73.07
2022-11-02T06:43:38.237Z,72.77
2022-11-02T06:46:05.119Z,72.47
2022-11-02T06:48:35.366Z,72.67
2022-11-02T06:51:03.042Z,73.37
2022-11-02T06:53:29.641Z,73.08
2022-11-02T06:55:56.922Z,72.80
2022-11-02T06:58:24.568Z,72.63
2022-11-02T07:00:51.611Z,72.23
2022-11-02T07:03:18.199Z,72.67
2022-11-02T07:05:49.635Z,73.05
2022-11-02T07:08:16.129Z,72.49
2022-11-02T07:10:42.681Z,71.83
2022-11-02T07:13:09.287Z,72.62
2022-11-02T07:15:35.917Z,72.37
2022-11-02T07:18:09.122Z,72.85
2022-11-02T07:20:35.752Z,71.92
2022-11-02T07:23:02.641Z,72.01
2022-11-02T07:25:32.823Z,71.83
2022-11-02T07:28:00.038Z,71.71
2022-11-02T07:30:27.559Z,71.82
2022-11-02T07:32:54.154Z,71.82
2022-11-02T07:35:20.711Z,71.90
2022-11-02T07:38:01.842Z,72.23
2022-11-02T07:40:29.635Z,72.10
2022-11-02T07:42:56.706Z,72.37
2022-11-02T07:45:34.536Z,72.42
2022-11-02T07:48:04.265Z,72.07
2022-11-02T07:50:30.868Z,71.94
2022-11-02T07:52:57.950Z,72.19
2022-11-02T07:55:26.088Z,71.85
2022-11-02T07:57:53.548Z,71.05
2022-11-02T08:00:20.103Z,70.77
2022-11-02T08:02:47.136Z,70.91
2022-11-02T08:05:13.780Z,70.65
2022-11-02T08:07:40.299Z,70.45
2022-11-02T08:10:07.294Z,70.77
2022-11-02T08:12:33.699Z,70.71
2022-11-02T08:15:07.362Z,70.65
2022-11-02T08:17:34.350Z,71.13
2022-11-02T08:20:00.921Z,70.57
2022-11-02T08:22:27.431Z,70.28
2022-11-02T08:24:53.912Z,70.35
2022-11-02T08:27:20.487Z,70.29
2022-11-02T08:29:46.971Z,70.11
2022-11-02T08:32:13.464Z,70.89
2022-11-02T08:34:39.971Z,70.42
2022-11-02T08:37:07.208Z,70.54
2022-11-02T08:39:33.707Z,70.13
2022-11-02T08:42:00.195Z,70.14
2022-11-02T08:44:26.636Z,69.49
2022-11-02T08:49:21.172Z,69.66
2022-11-02T08:51:47.859Z,69.40
2022-11-02T08:54:14.353Z,69.08
2022-11-02T08:56:40.945Z,69.63
2022-11-02T08:59:07.572Z,69.39
2022-11-02T09:01:34.044Z,68.71
2022-11-02T09:04:00.577Z,68.67
2022-11-02T09:06:27.030Z,68.06
2022-11-02T09:08:56.332Z,68.79
2022-11-02T09:11:24.574Z,68.65
2022-11-02T09:13:56.476Z,68.73
2022-11-02T09:16:23.803Z,68.20
2022-11-02T09:18:50.512Z,67.27
2022-11-02T09:21:16.972Z,67.94
2022-11-02T09:23:43.972Z,67.67
2022-11-02T09:26:10.718Z,67.13
2022-11-02T09:28:37.365Z,66.82
2022-11-02T09:31:07.298Z,66.95
2022-11-02T09:33:37.308Z,67.00
2022-11-02T09:36:04.505Z,66.33
2022-11-02T09:38:31.062Z,66.98
2022-11-02T09:41:16.175Z,66.67
2022-11-02T09:43:48.708Z,66.03
2022-11-02T09:46:25.641Z,66.48
2022-11-02T09:49:18.545Z,66.58
2022-11-02T09:51:46.643Z,65.55
2022-11-02T09:54:19.199Z,65.51
2022-11-02T09:56:46.053Z,66.49
2022-11-02T09:59:15.720Z,66.29
2022-11-02T10:01:45.295Z,66.85
2022-11-02T10:04:21.057Z,66.16
2022-11-02T10:06:51.822Z,66.29
2022-11-02T10:09:20.899Z,66.05
2022-11-02T10:11:56.564Z,65.72
2022-11-02T10:14:22.986Z,64.28
2022-11-02T10:16:52.959Z,63.32
2022-11-02T10:19:20.652Z,64.34
2022-11-02T10:21:48.555Z,63.72
2022-11-02T10:24:25.902Z,63.34
2022-11-02T10:26:59.310Z,62.82
2022-11-02T10:29:46.223Z,63.23
2022-11-02T10:32:13.103Z,64.13
2022-11-02T10:34:39.885Z,64.00
2022-11-02T10:37:06.300Z,62.26
2022-11-02T10:39:32.728Z,61.85
2022-11-02T10:41:59.208Z,61.35
2022-11-02T10:44:32.705Z,61.04
2022-11-02T10:47:03.086Z,61.22
2022-11-02T10:49:41.798Z,60.53
2022-11-02T10:52:10.415Z,59.44
2022-11-02T10:54:36.883Z,59.47
2022-11-02T10:57:08.571Z,59.44
2022-11-02T10:59:35.430Z,60.06
2022-11-02T11:02:03.225Z,60.39
2022-11-02T11:04:30.853Z,58.63
2022-11-02T11:06:58.478Z,60.16
2022-11-02T11:09:25.872Z,60.03
2022-11-02T11:11:53.281Z,58.10
2022-11-02T11:20:04.282Z,56.17
2022-11-02T11:22:37.485Z,56.80
2022-11-02T11:25:13.333Z,55.40
2022-11-02T11:27:46.889Z,55.92
2022-11-02T11:30:46.191Z,56.80
2022-11-02T11:33:14.488Z,55.70
2022-11-02T11:35:41.075Z,54.84
2022-11-02T11:38:09.126Z,55.28
2022-11-02T11:40:36.421Z,55.76
2022-11-02T11:43:02.942Z,54.94
2022-11-02T11:45:29.754Z,55.72
2022-11-02T11:48:06.656Z,55.74
2022-11-02T11:50:33.494Z,56.61
2022-11-02T11:53:15.510Z,57.25
2022-11-02T11:55:49.014Z,58.43
2022-11-02T11:58:23.054Z,58.27
2022-11-02T12:01:10.350Z,57.81
2022-11-02T12:03:51.403Z,56.97
2022-11-02T12:06:20.963Z,58.00
2022-11-02T12:08:53.607Z,57.83
2022-11-02T12:11:26.044Z,57.07
2022-11-02T12:13:55.807Z,57.40
2022-11-02T12:16:26.041Z,57.02
2022-11-02T12:19:11.567Z,57.65
2022-11-02T12:21:38.099Z,57.91
2022-11-02T12:24:04.532Z,57.62
2022-11-02T12:26:50.106Z,58.33
2022-11-02T12:29:25.361Z,58.17
2022-11-02T12:31:54.554Z,58.35
2022-11-02T12:34:27.775Z,58.27
2022-11-02T12:37:31.296Z,58.27
2022-11-02T12:39:49.585Z,58.75
2022-11-02T12:42:32.444Z,58.17
2022-11-02T12:45:05.328Z,56.98
2022-11-02T12:47:31.830Z,57.21
2022-11-02T12:50:08.643Z,57.04
2022-11-02T12:52:53.342Z,56.92
2022-11-02T12:55:24.662Z,57.75
2022-11-02T12:57:59.666Z,57.67
2022-11-02T13:00:26.077Z,58.05
2022-11-02T13:02:52.514Z,57.85
2022-11-02T13:05:21.240Z,58.17
2022-11-02T13:07:49.046Z,58.45
2022-11-02T13:10:25.954Z,58.87
2022-11-02T13:12:53.702Z,59.06
2022-11-02T13:15:21.085Z,58.69
2022-11-02T13:17:56.213Z,58.69
2022-11-02T13:20:23.006Z,58.87
2022-11-02T13:22:52.502Z,59.35
2022-11-02T13:25:28.579Z,58.71
2022-11-02T13:28:00.061Z,58.92
2022-11-02T13:30:29.378Z,59.01
2022-11-02T13:33:03.897Z,58.93
2022-11-02T13:35:34.894Z,58.23
2022-11-02T13:38:31.955Z,58.65
2022-11-02T13:41:01.586Z,58.14
2022-11-02T13:43:48.324Z,58.85
2022-11-02T13:46:25.138Z,58.74
2022-11-02T13:48:57.863Z,58.55
2022-11-02T13:51:24.768Z,58.80
2022-11-02T13:53:53.418Z,58.76
2022-11-02T13:56:36.873Z,58.36
2022-11-02T13:59:16.571Z,58.46
2022-11-02T14:01:43.142Z,58.86
2022-11-02T14:04:13.164Z,58.72
2022-11-02T14:06:44.422Z,57.64
2022-11-02T14:09:10.926Z,57.93
2022-11-02T14:11:40.531Z,58.44
2022-11-02T14:14:10.196Z,57.34
2022-11-02T14:16:42.577Z,58.23
2022-11-02T14:19:20.608Z,57.68
2022-11-02T14:21:51.330Z,58.16
2022-11-02T14:24:33.498Z,57.91
2022-11-02T14:27:07.462Z,58.30
2022-11-02T14:29:59.339Z,57.97
2022-11-02T14:32:42.038Z,57.85
2022-11-02T14:35:09.862Z,59.07
2022-11-02T14:37:51.010Z,58.85
2022-11-02T14:40:23.876Z,59.27
2022-11-02T14:42:59.784Z,59.45
2022-11-02T14:45:32.529Z,59.56
2022-11-02T14:48:00.151Z,59.25
2022-11-02T14:50:27.118Z,59.09
2022-11-02T14:52:55.308Z,59.94
2022-11-02T14:55:23.041Z,59.96
2022-11-02T14:57:54.705Z,59.85
2022-11-02T15:00:22.272Z,59.54
2022-11-02T15:02:48.939Z,60.08
2022-11-02T15:05:24.702Z,59.81
2022-11-02T15:07:52.613Z,59.87
2022-11-02T15:10:19.090Z,60.27
2022-11-02T15:12:46.577Z,60.23
2022-11-02T15:15:28.412Z,60.00
2022-11-02T15:17:59.866Z,60.40
2022-11-02T15:20:27.541Z,60.27
2022-11-02T15:22:59.969Z,60.52
2022-11-02T15:25:34.034Z,60.85
2022-11-02T15:28:07.917Z,61.02
2022-11-02T15:30:37.978Z,61.31
2022-11-02T15:33:05.990Z,61.66
2022-11-02T15:35:34.029Z,61.21
2022-11-02T15:38:17.030Z,61.51
2022-11-02T15:40:47.023Z,62.12
2022-11-02T15:43:13.528Z,62.19
2022-11-02T15:45:51.644Z,62.36
2022-11-02T15:48:43.466Z,62.52
2022-11-02T15:51:22.138Z,62.48
2022-11-02T15:54:04.321Z,62.54
2022-11-02T15:56:36.931Z,62.82
2022-11-02T15:59:15.407Z,62.16
2022-11-02T16:01:42.625Z,62.24
2022-11-02T16:04:11.769Z,61.99
2022-11-02T16:06:39.454Z,62.93
2022-11-02T16:09:41.583Z,63.09
2022-11-02T16:12:08.092Z,63.07
2022-11-02T16:14:34.501Z,63.35
2022-11-02T16:17:01.045Z,62.83
2022-11-02T16:19:27.517Z,63.04
2022-11-02T16:21:58.445Z,63.26
2022-11-02T16:24:27.667Z,63.52
2022-11-02T16:26:54.349Z,63.90
2022-11-02T16:29:27.650Z,63.96
2022-11-02T16:31:54.426Z,63.58
2022-11-02T16:34:22.110Z,63.46
2022-11-02T16:36:51.817Z,63.37
2022-11-02T16:39:27.541Z,63.42
2022-11-02T16:41:55.794Z,63.17
2022-11-02T16:44:26.133Z,63.55
2022-11-02T16:46:57.431Z,63.52
2022-11-02T16:49:24.858Z,63.49
2022-11-02T16:51:52.637Z,63.58
2022-11-02T16:54:29.818Z,64.96
2022-11-02T16:56:58.033Z,64.73
2022-11-02T16:59:25.744Z,64.32
2022-11-02T17:01:52.311Z,65.24
2022-11-02T17:04:25.742Z,64.72
2022-11-02T17:07:00.949Z,64.58
2022-11-02T17:09:31.195Z,65.35
2022-11-02T17:11:58.778Z,65.77
2022-11-02T17:14:25.413Z,65.11
2022-11-02T17:17:01.013Z,64.78
2022-11-02T17:19:39.931Z,65.19
2022-11-02T17:22:25.472Z,64.96
2022-11-02T17:25:18.381Z,64.56
2022-11-02T17:27:45.066Z,65.48
2022-11-02T17:30:29.934Z,65.37
2022-11-02T17:32:57.154Z,65.59
2022-11-02T17:35:27.246Z,65.10
2022-11-02T17:37:54.531Z,64.68
2022-11-02T17:40:22.090Z,64.55
2022-11-02T17:43:02.218Z,64.03
2022-11-02T17:45:29.959Z,63.47
2022-11-02T17:47:56.893Z,63.44
2022-11-02T17:50:23.876Z,62.88
2022-11-02T17:52:50.838Z,62.89
2022-11-02T17:55:21.375Z,62.75
2022-11-02T17:57:50.908Z,62.15
2022-11-02T18:00:20.059Z,62.60
2022-11-02T18:03:49.198Z,62.31
2022-11-02T18:06:39.331Z,62.45
2022-11-02T18:09:11.868Z,61.75
2022-11-02T18:11:38.541Z,62.74
2022-11-02T18:14:05.192Z,62.00
2022-11-02T18:16:53.445Z,61.66
2022-11-02T18:19:20.577Z,61.42
2022-11-02T18:21:48.979Z,61.21
2022-11-02T18:24:19.196Z,61.18
2022-11-02T18:26:46.951Z,61.09
2022-11-02T18:29:13.929Z,60.72
2022-11-02T18:31:40.803Z,60.91
2022-11-02T18:34:12.585Z,61.08
2022-11-02T18:36:45.528Z,61.40
2022-11-02T18:39:12.163Z,60.72
2022-11-02T18:41:51.778Z,61.01
2022-11-02T18:44:19.026Z,61.36
2022-11-02T18:46:57.785Z,61.95
2022-11-02T18:49:30.439Z,62.78
2022-11-02T18:51:58.213Z,61.83
2022-11-02T18:54:25.644Z,61.61
2022-11-02T18:56:52.379Z,62.07
2022-11-02T18:59:18.865Z,62.19
2022-11-02T19:01:56.712Z,62.26
2022-11-02T19:04:29.444Z,62.46
2022-11-02T19:07:16.352Z,62.70
2022-11-02T19:09:43.132Z,62.44
2022-11-02T19:12:10.417Z,62.54
2022-11-02T19:14:38.331Z,62.36
2022-11-02T19:17:05.533Z,62.63
2022-11-02T19:19:34.782Z,62.09
2022-11-02T19:22:08.442Z,61.96
2022-11-02T19:24:36.151Z,62.22
2022-11-02T19:27:05.247Z,62.06
2022-11-02T19:29:31.971Z,62.58
2022-11-02T19:32:01.415Z,63.18
2022-11-02T19:34:27.988Z,63.06
2022-11-02T19:36:54.557Z,63.43
2022-11-02T19:39:21.736Z,63.39
2022-11-02T19:41:52.328Z,63.83
2022-11-02T19:44:31.054Z,66.58
2022-11-02T19:50:20.379Z,62.77
2022-11-02T19:52:49.052Z,63.55
2022-11-02T19:55:15.701Z,62.89
2022-11-02T19:57:42.363Z,62.92
2022-11-02T20:00:09.303Z,67.86
2022-11-02T20:02:36.184Z,63.82
2022-11-02T20:05:02.858Z,62.11
2022-11-02T20:11:05.217Z,62.37
2022-11-02T20:13:32.748Z,62.54
2022-11-02T20:15:59.705Z,62.79
2022-11-02T20:18:26.751Z,63.59
2022-11-02T20:20:53.454Z,63.24
2022-11-02T20:23:26.524Z,62.78
2022-11-02T20:25:54.011Z,62.82
2022-11-02T20:28:20.614Z,63.77
2022-11-02T20:30:47.300Z,64.71
2022-11-02T20:33:14.008Z,63.57
2022-11-02T20:35:43.759Z,63.48
2022-11-02T20:38:11.538Z,64.28
2022-11-02T20:40:41.256Z,64.72
2022-11-02T20:43:08.058Z,63.94
2022-11-02T20:45:34.544Z,64.93
2022-11-02T20:48:01.541Z,64.97
2022-11-02T20:50:28.784Z,65.43
2022-11-02T20:52:56.170Z,65.09
2022-11-02T20:55:22.816Z,65.39
2022-11-02T20:57:49.459Z,65.03
2022-11-02T21:00:17.811Z,65.38
2022-11-02T21:02:47.694Z,66.02
2022-11-02T21:05:14.668Z,65.15
2022-11-02T21:07:41.154Z,65.77
2022-11-02T21:10:08.052Z,65.78
2022-11-02T21:12:53.196Z,65.90
2022-11-02T21:15:19.779Z,65.46
2022-11-02T21:17:46.528Z,65.87
2022-11-02T21:23:03.512Z,65.66
2022-11-02T21:25:31.005Z,65.48
2022-11-02T21:27:57.693Z,65.80
2022-11-02T21:30:24.224Z,65.63
2022-11-02T21:32:51.835Z,65.98
2022-11-02T21:35:18.769Z,66.37
2022-11-02T21:37:45.198Z,66.61
2022-11-02T21:40:11.883Z,65.52
2022-11-02T21:42:38.460Z,65.63
2022-11-02T21:45:05.699Z,65.54
2022-11-02T21:47:34.337Z,65.77
2022-11-02T21:50:01.813Z,65.72
2022-11-02T21:52:28.365Z,65.73
2022-11-02T21:54:54.836Z,65.80
2022-11-02T21:57:21.313Z,65.89
2022-11-02T21:59:47.901Z,66.22
2022-11-02T22:02:14.512Z,65.98
2022-11-02T22:04:41.215Z,65.69
2022-11-02T22:07:07.971Z,65.91
2022-11-02T22:09:43.644Z,66.18
2022-11-02T22:12:28.874Z,66.64
2022-11-02T22:14:55.337Z,66.75
2022-11-02T22:17:43.769Z,66.48
2022-11-02T22:20:08.603Z,66.53
2022-11-02T22:22:35.047Z,67.10
2022-11-02T22:25:01.537Z,66.55
2022-11-02T22:28:45.868Z,66.31
2022-11-02T22:31:13.605Z,66.73
2022-11-02T22:33:43.665Z,66.25
2022-11-02T22:36:13.502Z,66.70
2022-11-02T22:38:55.954Z,65.96
2022-11-02T22:41:41.675Z,65.84
2022-11-02T22:44:11.164Z,66.05
2022-11-02T22:46:40.059Z,65.66
2022-11-02T22:49:07.985Z,67.06
2022-11-02T22:51:40.044Z,66.88
2022-11-02T22:54:09.597Z,66.06
2022-11-02T22:56:36.212Z,66.04
2022-11-02T22:59:03.781Z,64.56
2022-11-02T23:01:31.540Z,64.75
2022-11-02T23:03:58.734Z,64.31
2022-11-02T23:06:26.048Z,64.58
2022-11-02T23:08:55.214Z,65.30
2022-11-02T23:11:25.271Z,65.44
2022-11-02T23:14:04.976Z,66.00
2022-11-02T23:16:34.346Z,65.75
2022-11-02T23:19:27.261Z,65.95
2022-11-02T23:22:17.015Z,65.60
2022-11-02T23:25:03.379Z,65.01
2022-11-02T23:27:31.204Z,65.13
2022-11-02T23:30:22.709Z,65.17
2022-11-02T23:32:56.426Z,64.74
2022-11-02T23:35:41.644Z,63.71
2022-11-02T23:38:10.291Z,63.51
2022-11-02T23:40:36.868Z,63.86
2022-11-02T23:43:05.012Z,64.42
2022-11-02T23:45:31.808Z,64.68
2022-11-02T23:48:00.138Z,64.41
2022-11-02T23:50:48.574Z,64.93
2022-11-02T23:53:38.256Z,65.13
2022-11-02T23:56:25.073Z,65.49
2022-11-02T23:59:06.494Z,65.48
